Time;durP1;ratioP1;P1;durP2;ratioP2;P2;SDS_P1;SDS_P2;PMS_P1;PMS_P2;Temp;Humidity;BMP_temperature;BMP_pressure;BME280_temperature;BME280_humidity;BME280_pressure;Samples;Min_cycle;Max_cycle;Signal;HPM_P1;HPM_P2
2022/08/21 00:00:27;;;;;;;;;4.50;3.25;;;;;22.04;48.18;101356.47;5112531;27;45422;-61
2022/08/21 00:02:58;;;;;;;;;5.50;3.25;;;;;22.00;48.45;101344.94;5117689;27;45377;-61
2022/08/21 00:05:25;;;;;;;;;4.25;3.50;;;;;22.01;48.44;101350.25;5119212;27;45428;-61
2022/08/21 00:07:51;;;;;;;;;4.25;3.00;;;;;22.00;48.21;101348.53;5107152;27;45535;-61
2022/08/21 00:10:18;;;;;;;;;3.75;3.75;;;;;21.91;48.36;101329.28;5120848;27;46278;-61
2022/08/21 00:12:45;;;;;;;;;4.25;3.50;;;;;22.00;48.46;101340.38;5120652;27;45430;-61
2022/08/21 00:15:13;;;;;;;;;2.00;2.00;;;;;21.91;48.70;101327.44;5120984;27;45310;-61
2022/08/21 00:17:39;;;;;;;;;6.00;3.50;;;;;21.96;48.99;101343.44;5120397;27;45452;-61
2022/08/21 00:20:08;;;;;;;;;3.00;3.00;;;;;21.91;48.79;101332.00;5120958;27;46252;-62
2022/08/21 00:22:33;;;;;;;;;6.00;3.50;;;;;21.89;48.53;101337.56;5118916;27;45432;-61
2022/08/21 00:24:59;;;;;;;;;2.00;2.00;;;;;21.79;48.81;101318.31;5120591;27;45383;-61
2022/08/21 00:27:25;;;;;;;;;4.00;2.00;;;;;21.81;48.84;101319.06;5117640;27;45600;-61
2022/08/21 00:29:50;;;;;;;;;2.75;2.75;;;;;21.83;49.05;101332.53;5117807;27;45368;-61
2022/08/21 00:32:26;;;;;;;;;3.75;3.75;;;;;21.80;49.21;101330.94;5098743;27;45336;-61
2022/08/21 00:34:52;;;;;;;;;2.25;2.25;;;;;21.69;48.87;101314.50;5118687;27;45488;-61
2022/08/21 00:37:18;;;;;;;;;3.00;3.00;;;;;21.66;49.48;101306.56;5114037;27;45520;-61
2022/08/21 00:39:45;;;;;;;;;3.00;3.00;;;;;21.73;49.45;101317.88;5105294;27;46139;-61
2022/08/21 00:42:14;;;;;;;;;4.00;1.25;;;;;21.72;49.83;101310.69;5109523;27;45413;-61
2022/08/21 00:44:42;;;;;;;;;3.25;3.25;;;;;21.67;49.25;101311.03;5119588;27;45365;-61
2022/08/21 00:47:08;;;;;;;;;3.00;3.00;;;;;21.63;49.20;101306.78;5104197;27;45970;-61
2022/08/21 00:49:33;;;;;;;;;4.50;2.75;;;;;21.67;49.69;101315.56;5120555;27;45997;-61
2022/08/21 00:52:00;;;;;;;;;1.00;1.00;;;;;21.70;49.63;101326.22;5106944;27;45376;-61
2022/08/21 00:54:29;;;;;;;;;3.00;2.75;;;;;21.69;49.79;101319.94;5100427;27;46969;-61
2022/08/21 00:57:08;;;;;;;;;3.25;3.25;;;;;21.73;49.80;101324.16;5118987;27;45334;-61
2022/08/21 00:59:37;;;;;;;;;3.00;3.00;;;;;21.71;50.03;101323.41;5116864;27;45285;-61
2022/08/21 01:02:04;;;;;;;;;3.50;2.00;;;;;21.64;49.86;101312.09;5120120;27;45532;-61
2022/08/21 01:04:29;;;;;;;;;2.00;2.00;;;;;21.63;49.46;101317.63;5121436;27;47156;-61
2022/08/21 01:06:55;;;;;;;;;4.75;3.00;;;;;21.62;49.89;101316.78;5114072;27;45471;-61
2022/08/21 01:09:20;;;;;;;;;3.50;3.50;;;;;21.61;49.60;101308.72;5106445;27;47062;-61
2022/08/21 01:11:46;;;;;;;;;3.00;3.00;;;;;21.64;49.72;101311.25;5121522;27;45243;-61
2022/08/21 01:14:14;;;;;;;;;1.75;1.75;;;;;21.65;50.02;101318.41;5122020;27;45408;-61
2022/08/21 01:16:43;;;;;;;;;4.25;3.00;;;;;21.62;50.15;101321.34;5123625;27;45428;-61
2022/08/21 01:19:10;;;;;;;;;2.50;2.00;;;;;21.55;50.12;101318.19;5122453;27;45502;-61
2022/08/21 01:21:36;;;;;;;;;3.00;1.75;;;;;21.51;50.58;101311.22;5104571;27;46151;-61
2022/08/21 01:24:02;;;;;;;;;1.25;1.25;;;;;21.46;50.16;101306.06;5122309;27;45276;-61
2022/08/21 01:26:31;;;;;;;;;2.50;1.25;;;;;21.56;50.89;101319.91;5123685;27;45425;-61
2022/08/21 01:29:00;;;;;;;;;1.50;1.00;;;;;21.55;50.61;101317.31;5122526;27;46189;-61
2022/08/21 01:31:27;;;;;;;;;2.00;2.00;;;;;21.53;51.28;101321.97;5120140;27;45352;-61
2022/08/21 01:33:54;;;;;;;;;2.00;1.50;;;;;21.53;51.14;101321.97;5119691;27;45271;-61
2022/08/21 01:36:21;;;;;;;;;3.00;1.50;;;;;21.52;50.41;101329.28;5120793;27;45783;-61
2022/08/21 01:38:47;;;;;;;;;2.00;2.00;;;;;21.50;50.68;101324.91;5109205;27;46014;-61
2022/08/21 01:41:13;;;;;;;;;2.25;2.25;;;;;21.54;51.25;101335.47;5122564;27;45458;-61
2022/08/21 01:43:38;;;;;;;;;2.25;2.25;;;;;21.54;50.51;101337.31;5121746;27;45389;-61
2022/08/21 01:46:04;;;;;;;;;1.75;1.75;;;;;21.46;50.43;101326.94;5122489;27;45467;-61
2022/08/21 01:48:29;;;;;;;;;5.00;3.00;;;;;21.46;50.79;101326.94;5120576;27;45422;-61
2022/08/21 01:50:57;;;;;;;;;3.00;2.00;;;;;21.48;50.62;101329.59;5099079;27;45464;-61
2022/08/21 01:53:22;;;;;;;;;1.50;1.00;;;;;21.46;50.54;101337.78;5119920;27;45345;-61
2022/08/21 01:55:48;;;;;;;;;3.00;2.00;;;;;21.43;50.62;101330.75;5121128;27;45523;-61
2022/08/21 01:58:13;;;;;;;;;1.75;1.75;;;;;21.39;50.42;101333.78;5117605;27;45499;-61
2022/08/21 02:00:38;;;;;;;;;2.75;2.00;;;;;21.33;50.56;101329.63;5102589;27;45437;-61
2022/08/21 02:03:04;;;;;;;;;2.25;2.25;;;;;21.27;50.92;101316.47;5118414;27;45472;-61
2022/08/21 02:05:29;;;;;;;;;4.25;2.00;;;;;21.26;50.61;101321.03;5122921;27;45513;-61
2022/08/21 02:07:55;;;;;;;;;2.00;2.00;;;;;21.31;51.06;101328.84;5119626;27;45411;-61
2022/08/21 02:10:30;;;;;;;;;5.00;3.25;;;;;21.27;50.82;101330.06;5122799;27;45453;-61
2022/08/21 02:12:57;;;;;;;;;3.00;2.00;;;;;21.28;51.56;101332.66;5122613;27;45503;-61
2022/08/21 02:15:23;;;;;;;;;1.75;1.00;;;;;21.26;51.20;101320.16;5122691;27;45419;-61
2022/08/21 02:17:52;;;;;;;;;2.25;2.25;;;;;21.28;51.50;101312.78;5122458;27;45267;-61
2022/08/21 02:20:34;;;;;;;;;2.00;2.00;;;;;21.26;51.68;101312.88;5121265;27;46221;-61
2022/08/21 02:23:00;;;;;;;;;1.50;1.25;;;;;21.25;51.63;101310.25;5109293;27;45318;-61
2022/08/21 02:25:27;;;;;;;;;3.25;1.75;;;;;21.26;51.36;101314.72;5122709;27;45493;-61
2022/08/21 02:27:53;;;;;;;;;2.50;2.50;;;;;21.28;51.33;101315.47;5122447;27;45455;-61
2022/08/21 02:30:25;;;;;;;;;2.25;2.25;;;;;21.25;51.19;101311.16;5122325;27;45394;-61
2022/08/21 02:32:50;;;;;;;;;2.50;2.00;;;;;21.21;51.24;101306.88;5099070;27;46899;-61
2022/08/21 02:35:16;;;;;;;;;1.75;1.50;;;;;21.20;51.33;101304.28;5118235;27;45289;-61
2022/08/21 02:37:59;;;;;;;;;3.75;3.00;;;;;21.22;51.60;101308.66;5118876;27;46502;-61
2022/08/21 02:40:30;;;;;;;;;3.00;2.75;;;;;21.19;52.05;101308.84;5121519;27;45420;-61
2022/08/21 02:42:56;;;;;;;;;1.75;1.75;;;;;21.16;51.47;101311.75;5112932;27;45510;-61
2022/08/21 02:45:21;;;;;;;;;7.00;3.00;;;;;21.14;52.17;101305.56;5122217;27;45403;-61
2022/08/21 02:47:53;;;;;;;;;2.00;2.00;;;;;21.19;52.19;101307.97;5118114;27;45460;-61
2022/08/21 02:50:22;;;;;;;;;2.25;2.25;;;;;21.15;51.95;101311.88;5102336;27;45488;-61
2022/08/21 02:52:48;;;;;;;;;1.50;1.50;;;;;21.05;52.31;101304.38;5116416;27;45423;-61
2022/08/21 02:55:14;;;;;;;;;2.00;2.00;;;;;21.09;52.36;101314.03;5116059;27;45253;-61
2022/08/21 02:57:39;;;;;;;;;3.50;2.00;;;;;21.10;52.34;101318.50;5120271;27;45528;-61
2022/08/21 03:00:06;;;;;;;;;3.50;3.00;;;;;21.14;52.18;101326.44;5120922;27;45191;-61
2022/08/21 03:02:31;;;;;;;;;4.00;3.00;;;;;21.13;52.59;101322.81;5114943;27;45398;-61
2022/08/21 03:04:56;;;;;;;;;3.00;2.00;;;;;21.09;52.49;101315.88;5119265;27;45510;-61
2022/08/21 03:07:23;;;;;;;;;4.00;2.00;;;;;21.03;52.26;101300.00;5115740;27;60775;-61
2022/08/21 03:09:48;;;;;;;;;4.00;3.25;;;;;21.08;53.07;101315.03;5121174;27;45505;-61
2022/08/21 03:12:13;;;;;;;;;4.00;3.00;;;;;21.05;52.74;101312.50;5121022;27;47898;-61
2022/08/21 03:14:39;;;;;;;;;1.00;1.00;;;;;20.99;52.58;101304.78;5120210;27;47219;-61
2022/08/21 03:17:04;;;;;;;;;1.00;1.00;;;;;21.03;52.26;101306.31;5120920;27;45496;-61
2022/08/21 03:19:30;;;;;;;;;2.75;2.75;;;;;21.02;52.54;101312.72;5121623;27;45359;-61
2022/08/21 03:21:55;;;;;;;;;3.00;3.00;;;;;21.01;52.53;101310.97;5120508;27;45342;-61
2022/08/21 03:24:20;;;;;;;;;2.00;2.00;;;;;21.00;52.59;101309.22;5100438;27;45255;-61
2022/08/21 03:26:46;;;;;;;;;3.00;3.00;;;;;20.99;52.77;101310.19;5120913;27;45302;-61
2022/08/21 03:29:11;;;;;;;;;2.75;2.75;;;;;20.89;52.57;101295.50;5102146;27;45933;-61
2022/08/21 03:31:36;;;;;;;;;2.75;2.75;;;;;20.91;53.59;101299.88;5118530;27;45273;-61
2022/08/21 03:34:02;;;;;;;;;1.25;1.00;;;;;20.86;53.12;101291.16;5117546;27;50401;-61
2022/08/21 03:36:27;;;;;;;;;6.50;4.00;;;;;20.83;53.45;101287.78;5117206;27;45895;-61
2022/08/21 03:38:52;;;;;;;;;5.00;4.00;;;;;20.84;52.85;101289.53;5120283;27;51531;-61
2022/08/21 03:41:17;;;;;;;;;4.00;3.00;;;;;20.84;53.50;101292.25;5119577;27;45843;-61
2022/08/21 03:43:43;;;;;;;;;3.50;3.50;;;;;20.78;53.52;101277.25;5119449;27;45497;-61
2022/08/21 03:46:09;;;;;;;;;4.75;3.00;;;;;20.71;53.30;101262.34;5121282;27;48192;-61
2022/08/21 03:48:36;;;;;;;;;3.00;3.00;;;;;20.75;53.27;101263.88;5118823;27;45362;-61
2022/08/21 03:51:02;;;;;;;;;4.25;3.50;;;;;20.80;53.55;101278.00;5090941;27;45379;-61
2022/08/21 03:53:28;;;;;;;;;2.50;2.50;;;;;20.79;53.37;101270.84;5110182;27;45550;-61
2022/08/21 03:55:54;;;;;;;;;5.00;3.00;;;;;20.75;53.49;101263.88;5115889;27;46916;-61
2022/08/21 03:58:22;;;;;;;;;5.00;5.00;;;;;20.80;53.31;101278.00;5120903;27;45436;-61
2022/08/21 04:00:50;;;;;;;;;3.75;3.75;;;;;20.81;53.06;101274.31;5121412;27;45316;-61
2022/08/21 04:03:16;;;;;;;;;3.75;3.75;;;;;20.73;53.42;101261.28;5116076;27;45392;-61
2022/08/21 04:05:42;;;;;;;;;3.50;3.25;;;;;20.77;53.56;101261.06;5101099;27;47611;-61
2022/08/21 04:08:07;;;;;;;;;3.75;2.75;;;;;20.81;53.47;101270.72;5117003;27;45595;-61
2022/08/21 04:10:36;;;;;;;;;2.00;2.00;;;;;20.79;53.58;101269.97;5121254;27;45822;-61
2022/08/21 04:13:03;;;;;;;;;3.00;3.00;;;;;20.79;53.29;101268.13;5120660;27;45466;-61
2022/08/21 04:15:28;;;;;;;;;2.75;2.75;;;;;20.78;53.82;101258.25;5120592;27;46482;-61
2022/08/21 04:17:54;;;;;;;;;3.00;2.00;;;;;20.78;53.02;101254.66;5121002;27;45200;-61
2022/08/21 04:20:21;;;;;;;;;3.75;3.00;;;;;20.81;53.26;101265.31;5120936;27;45379;-61
2022/08/21 04:22:47;;;;;;;;;2.25;2.25;;;;;20.79;53.55;101270.84;5120052;27;45411;-61
2022/08/21 04:25:14;;;;;;;;;5.00;4.00;;;;;20.74;53.64;101262.13;5119018;27;45351;-61
2022/08/21 04:27:42;;;;;;;;;2.00;2.00;;;;;20.76;53.54;101276.47;5119069;27;45498;-61
2022/08/21 04:30:09;;;;;;;;;6.75;3.50;;;;;20.77;53.65;101280.94;5101705;27;45522;-61
2022/08/21 04:32:36;;;;;;;;;2.00;2.00;;;;;20.78;53.80;101287.22;5117735;27;45597;-61
2022/08/21 04:35:07;;;;;;;;;3.50;3.50;;;;;20.70;53.84;101293.16;5116870;27;46915;-61
2022/08/21 04:37:32;;;;;;;;;6.25;4.75;;;;;20.74;53.74;101302.81;5123322;27;45322;-61
2022/08/21 04:39:58;;;;;;;;;5.00;4.00;;;;;20.72;53.97;101293.94;5103444;27;45452;-61
2022/08/21 04:42:28;;;;;;;;;4.50;4.00;;;;;20.70;53.81;101296.75;5101127;27;45629;-61
2022/08/21 04:44:55;;;;;;;;;3.75;3.75;;;;;20.67;53.59;101291.50;5124120;27;45414;-61
2022/08/21 04:47:21;;;;;;;;;3.50;3.00;;;;;20.69;54.26;101307.69;5121742;27;45336;-61
2022/08/21 04:49:46;;;;;;;;;2.25;2.25;;;;;20.64;54.13;101297.13;5124180;27;45426;-61
2022/08/21 04:52:16;;;;;;;;;5.00;3.00;;;;;20.62;53.55;101292.78;5118338;27;45395;-61
2022/08/21 04:54:44;;;;;;;;;3.75;2.50;;;;;20.63;53.77;101300.84;5123185;27;46381;-61
2022/08/21 04:57:11;;;;;;;;;4.00;4.00;;;;;20.62;53.76;101299.06;5123234;27;45489;-61
2022/08/21 04:59:45;;;;;;;;;2.75;2.75;;;;;20.60;53.94;101298.28;5102846;27;45326;-61
2022/08/21 05:02:12;;;;;;;;;3.00;3.00;;;;;20.66;53.62;101313.31;5116035;27;45255;-61
2022/08/21 05:04:44;;;;;;;;;5.25;2.75;;;;;20.63;53.31;101308.97;5095059;27;47374;-61
2022/08/21 05:07:14;;;;;;;;;3.25;3.00;;;;;20.65;53.56;101312.44;5104060;27;45510;-61
2022/08/21 05:09:40;;;;;;;;;3.25;3.00;;;;;20.64;53.63;101316.13;5120177;27;45469;-61
2022/08/21 05:12:06;;;;;;;;;4.50;3.00;;;;;20.57;53.66;101303.91;5117015;27;45183;-61
2022/08/21 05:14:31;;;;;;;;;5.75;4.00;;;;;20.59;53.81;101301.09;5122619;27;46068;-61
2022/08/21 05:16:57;;;;;;;;;3.25;3.25;;;;;20.63;53.90;101308.09;5122922;27;45228;-61
2022/08/21 05:19:23;;;;;;;;;5.00;4.00;;;;;20.62;53.81;101304.47;5105290;27;45238;-61
2022/08/21 05:21:48;;;;;;;;;3.00;3.00;;;;;20.57;54.29;101295.78;5101371;27;45468;-61
2022/08/21 05:24:14;;;;;;;;;2.00;2.00;;;;;20.54;53.87;101293.25;5122795;27;45452;-61
2022/08/21 05:26:40;;;;;;;;;4.25;4.25;;;;;20.58;54.00;101310.19;5122941;27;45611;-61
2022/08/21 05:29:05;;;;;;;;;5.25;5.00;;;;;20.47;53.87;101290.09;5121988;27;45318;-60
2022/08/21 05:31:31;;;;;;;;;4.00;2.75;;;;;20.57;54.11;101303.06;5102241;27;47210;-61
2022/08/21 05:33:56;;;;;;;;;2.50;2.25;;;;;20.55;54.21;101300.44;5119861;27;45659;-61
2022/08/21 05:36:22;;;;;;;;;4.00;4.00;;;;;20.53;54.07;101302.34;5119493;27;45408;-61
2022/08/21 05:38:47;;;;;;;;;3.00;2.75;;;;;20.54;54.15;101314.97;5099512;27;45450;-61
2022/08/21 05:41:12;;;;;;;;;3.00;3.00;;;;;20.52;53.78;101304.22;5113086;27;45342;-61
2022/08/21 05:43:38;;;;;;;;;3.75;3.75;;;;;20.50;53.95;101297.16;5101218;27;47545;-61
2022/08/21 05:46:05;;;;;;;;;4.25;4.00;;;;;20.47;54.41;101305.50;5120933;27;45463;-61
2022/08/21 05:48:34;;;;;;;;;5.25;4.00;;;;;20.46;54.29;101304.59;5119752;27;45430;-61
2022/08/21 05:51:06;;;;;;;;;3.00;2.50;;;;;20.40;54.46;101301.41;5119894;27;45374;-61
2022/08/21 05:53:32;;;;;;;;;4.25;3.00;;;;;20.40;54.50;101302.31;5112373;27;46823;-61
2022/08/21 05:55:57;;;;;;;;;2.00;2.00;;;;;20.40;54.43;101314.97;5118563;27;45520;-61
2022/08/21 05:58:22;;;;;;;;;3.00;3.00;;;;;20.40;54.50;101304.13;5122976;27;45408;-61
2022/08/21 06:00:50;;;;;;;;;5.00;3.25;;;;;20.34;54.74;101298.13;5120289;27;45311;-61
2022/08/21 06:03:21;;;;;;;;;4.25;4.00;;;;;20.38;54.54;101306.97;5121069;27;45562;-61
2022/08/21 06:05:46;;;;;;;;;6.00;4.00;;;;;20.41;54.75;101308.59;5111631;27;45540;-61
2022/08/21 06:08:12;;;;;;;;;5.00;3.50;;;;;20.39;54.44;101300.56;5107874;27;45233;-61
2022/08/21 06:10:38;;;;;;;;;3.00;3.00;;;;;20.40;54.56;101296.00;5123087;27;45352;-61
2022/08/21 06:13:04;;;;;;;;;3.00;3.00;;;;;20.40;54.84;101301.41;5103827;27;47463;-61
2022/08/21 06:15:29;;;;;;;;;3.00;2.25;;;;;20.36;54.69;101301.66;5122407;27;45686;-61
2022/08/21 06:17:55;;;;;;;;;3.75;3.75;;;;;20.34;55.19;101300.00;5103917;27;45600;-61
2022/08/21 06:20:21;;;;;;;;;4.50;4.50;;;;;20.39;54.91;101315.97;5122651;27;45255;-61
2022/08/21 06:22:46;;;;;;;;;4.25;4.25;;;;;20.42;54.74;101313.06;5119452;27;46218;-61
2022/08/21 06:25:11;;;;;;;;;4.00;3.00;;;;;20.45;55.15;101315.56;5114297;27;45452;-61
2022/08/21 06:27:37;;;;;;;;;4.25;4.25;;;;;20.39;54.80;101311.41;5122522;27;45420;-64
2022/08/21 06:30:05;;;;;;;;;3.00;2.75;;;;;20.43;54.76;101314.78;5121763;27;45404;-63
2022/08/21 06:32:30;;;;;;;;;2.50;2.50;;;;;20.33;54.89;101293.69;5115908;27;46328;-65
2022/08/21 06:34:56;;;;;;;;;4.25;4.00;;;;;20.43;54.74;101302.13;5120056;27;45584;-65
2022/08/21 06:37:22;;;;;;;;;4.25;3.50;;;;;20.47;55.01;101306.34;5117798;27;46859;-65
2022/08/21 06:39:47;;;;;;;;;4.25;4.25;;;;;20.43;55.19;101293.97;5117394;27;45483;-65
2022/08/21 06:42:16;;;;;;;;;4.00;4.00;;;;;20.45;55.39;101297.47;5120476;27;45396;-65
2022/08/21 06:44:42;;;;;;;;;3.50;3.00;;;;;20.51;54.84;101301.59;5120905;27;45653;-65
2022/08/21 06:47:08;;;;;;;;;6.00;5.00;;;;;20.51;55.21;101290.75;5116168;27;45312;-65
2022/08/21 06:49:34;;;;;;;;;5.00;5.00;;;;;20.51;54.61;101288.03;5117081;27;45834;-66
2022/08/21 06:51:59;;;;;;;;;5.00;4.00;;;;;20.52;55.18;101287.06;5116929;27;47074;-65
2022/08/21 06:54:25;;;;;;;;;4.75;3.00;;;;;20.45;54.75;101273.06;5121254;27;45339;-66
2022/08/21 06:56:50;;;;;;;;;4.25;4.25;;;;;20.43;54.56;101266.88;5119305;27;45615;-65
2022/08/21 06:59:15;;;;;;;;;3.50;2.00;;;;;20.55;54.80;101284.16;5102244;27;45922;-65
2022/08/21 07:01:41;;;;;;;;;4.00;3.50;;;;;20.52;54.47;101276.22;5116080;27;48556;-65
2022/08/21 07:04:07;;;;;;;;;7.00;4.00;;;;;20.46;54.05;101268.50;5117724;27;46139;-65
2022/08/21 07:06:33;;;;;;;;;3.50;3.00;;;;;20.56;54.58;101291.31;5111633;27;45433;-66
2022/08/21 07:08:58;;;;;;;;;6.25;5.00;;;;;20.52;54.34;101284.38;5109216;27;45478;-65
2022/08/21 07:11:24;;;;;;;;;5.25;4.25;;;;;20.48;54.29;101274.66;5118473;27;46158;-65
2022/08/21 07:13:54;;;;;;;;;4.75;3.50;;;;;20.52;55.12;101278.94;5120936;27;45436;-65
2022/08/21 07:16:20;;;;;;;;;4.00;4.00;;;;;20.62;54.65;101279.22;5120489;27;45417;-65
2022/08/21 07:18:46;;;;;;;;;5.00;4.25;;;;;20.62;55.06;101277.34;5117381;27;45492;-65
2022/08/21 07:21:11;;;;;;;;;6.75;5.00;;;;;20.66;55.14;101286.19;5115925;27;46293;-65
2022/08/21 07:23:40;;;;;;;;;6.00;5.75;;;;;20.62;54.27;101273.78;5119819;27;45617;-65
2022/08/21 07:26:06;;;;;;;;;6.50;4.25;;;;;20.68;54.86;101278.81;5109763;27;45471;-65
2022/08/21 07:28:31;;;;;;;;;4.00;4.00;;;;;20.70;54.94;101277.75;5121293;27;45328;-65
2022/08/21 07:30:58;;;;;;;;;5.00;4.75;;;;;20.80;54.39;101287.97;5121371;27;45343;-65
2022/08/21 07:33:25;;;;;;;;;5.25;5.25;;;;;20.70;54.72;101269.63;5103076;27;45573;-65
2022/08/21 07:35:51;;;;;;;;;6.25;4.75;;;;;20.84;54.91;101284.97;5115322;27;45586;-64
2022/08/21 07:38:18;;;;;;;;;6.25;4.25;;;;;20.87;54.36;101282.03;5108173;27;45588;-64
2022/08/21 07:40:43;;;;;;;;;6.00;4.50;;;;;20.88;55.06;101278.38;5121259;27;46062;-64
2022/08/21 07:43:09;;;;;;;;;5.00;4.50;;;;;20.91;54.97;101278.16;5102374;27;46226;-64
2022/08/21 07:45:34;;;;;;;;;4.25;3.00;;;;;20.90;54.06;101275.56;5114364;27;45957;-63
2022/08/21 07:48:00;;;;;;;;;5.00;4.25;;;;;20.94;54.03;101281.66;5100038;27;45542;-63
2022/08/21 07:50:25;;;;;;;;;6.00;5.00;;;;;20.98;55.30;101284.06;5119699;27;45591;-63
2022/08/21 07:52:51;;;;;;;;;5.25;4.25;;;;;21.03;55.02;101278.28;5120803;27;45360;-63
2022/08/21 07:55:19;;;;;;;;;5.75;5.50;;;;;21.09;54.03;101280.59;5118949;27;45666;-64
2022/08/21 07:57:46;;;;;;;;;4.00;4.00;;;;;21.11;54.30;101273.22;5120851;27;45243;-64
2022/08/21 08:00:15;;;;;;;;;6.50;3.75;;;;;21.10;54.25;101266.91;5121311;27;45303;-64
2022/08/21 08:02:41;;;;;;;;;6.75;6.00;;;;;21.19;54.86;101265.41;5094175;27;45372;-63
2022/08/21 08:05:11;;;;;;;;;7.50;5.75;;;;;21.27;54.11;101276.63;5115275;27;45389;-64
2022/08/21 08:07:37;;;;;;;;;9.75;7.25;;;;;21.28;54.33;101266.63;5110594;27;45410;-65
2022/08/21 08:10:05;;;;;;;;;5.25;4.50;;;;;21.34;53.96;101266.19;5119103;27;46123;-65
2022/08/21 08:12:30;;;;;;;;;6.00;6.00;;;;;21.38;54.05;101264.13;5120709;27;45433;-64
2022/08/21 08:15:00;;;;;;;;;6.25;5.50;;;;;21.43;53.84;101261.97;5115127;27;45642;-64
2022/08/21 08:17:25;;;;;;;;;4.50;3.75;;;;;21.46;53.57;101265.31;5119717;27;45356;-64
2022/08/21 08:19:51;;;;;;;;;4.25;4.25;;;;;21.52;53.73;101260.47;5119984;27;47226;-64
2022/08/21 08:22:23;;;;;;;;;7.00;6.00;;;;;21.54;53.76;101259.41;5117452;27;45295;-65
2022/08/21 08:24:48;;;;;;;;;5.00;5.00;;;;;21.56;53.91;101252.00;5102141;27;45418;-64
2022/08/21 08:27:15;;;;;;;;;5.50;5.00;;;;;21.63;54.07;101257.88;5120647;27;45317;-63
2022/08/21 08:29:41;;;;;;;;;5.50;4.25;;;;;21.67;53.69;101255.81;5119320;27;45218;-63
2022/08/21 08:32:07;;;;;;;;;10.25;5.00;;;;;21.60;53.87;101244.50;5106387;27;45278;-63
2022/08/21 08:34:34;;;;;;;;;8.75;7.00;;;;;21.66;53.98;101249.50;5119935;27;45282;-63
2022/08/21 08:36:59;;;;;;;;;7.50;5.00;;;;;21.74;53.02;101254.41;5120707;27;45314;-63
2022/08/21 08:39:26;;;;;;;;;34.50;28.75;;;;;21.78;54.00;101262.22;5120463;27;46046;-63
2022/08/21 08:42:09;;;;;;;;;61.75;44.75;;;;;21.81;54.83;101252.97;5119729;27;45649;-63
2022/08/21 08:44:36;;;;;;;;;45.25;35.00;;;;;21.81;55.41;101247.56;5119378;27;45415;-63
2022/08/21 08:47:01;;;;;;;;;23.00;19.25;;;;;21.87;55.29;101257.09;5119838;27;45397;-63
2022/08/21 08:49:31;;;;;;;;;21.00;19.00;;;;;21.87;54.99;101249.84;5120502;27;46273;-63
2022/08/21 08:52:02;;;;;;;;;17.75;15.50;;;;;21.93;55.12;101252.09;5118261;27;45673;-63
2022/08/21 08:54:33;;;;;;;;;16.00;14.50;;;;;21.96;53.70;101251.00;5119874;27;45697;-63
2022/08/21 08:57:01;;;;;;;;;6.00;6.00;;;;;21.98;53.99;101244.47;5119459;27;45412;-63
2022/08/21 08:59:42;;;;;;;;;11.25;7.75;;;;;21.99;54.49;101246.22;5120206;27;46214;-63
2022/08/21 09:02:11;;;;;;;;;10.75;10.00;;;;;22.02;54.33;101243.28;5119394;27;45585;-63
2022/08/21 09:04:36;;;;;;;;;11.00;9.50;;;;;22.06;54.22;101248.50;5119890;27;45257;-63
2022/08/21 09:07:04;;;;;;;;;8.75;5.75;;;;;22.07;53.15;101242.94;5118904;27;45584;-63
2022/08/21 09:09:38;;;;;;;;;9.25;6.25;;;;;22.08;53.29;101236.50;5120089;27;45359;-64
2022/08/21 09:12:15;;;;;;;;;9.75;6.75;;;;;22.08;53.36;101235.66;5095836;27;45671;-63
2022/08/21 09:15:02;;;;;;;;;10.50;8.25;;;;;22.16;53.52;101235.97;5118021;27;45567;-63
2022/08/21 09:17:58;;;;;;;;;24.75;18.50;;;;;22.20;53.58;101234.75;5107823;27;45335;-63
2022/08/21 09:20:37;;;;;;;;;6.00;5.00;;;;;22.24;52.66;101228.13;5106143;27;46218;-63
2022/08/21 09:23:25;;;;;;;;;7.00;5.50;;;;;22.29;52.73;101219.66;5122395;27;45398;-63
2022/08/21 09:25:55;;;;;;;;;8.00;6.50;;;;;22.33;53.85;101221.16;5123759;27;45512;-63
2022/08/21 09:28:20;;;;;;;;;10.75;6.25;;;;;22.37;53.92;101220.81;5122437;27;45372;-63
2022/08/21 09:30:46;;;;;;;;;5.50;4.00;;;;;22.37;52.78;101200.91;5114120;27;46066;-63
2022/08/21 09:33:13;;;;;;;;;13.25;13.25;;;;;22.45;53.51;101209.34;5117119;27;45327;-63
2022/08/21 09:35:52;;;;;;;;;5.00;5.00;;;;;22.48;52.17;101213.69;5122972;27;45323;-63
2022/08/21 09:38:32;;;;;;;;;6.00;4.75;;;;;22.49;52.57;101219.03;5122504;27;45603;-62
2022/08/21 09:41:04;;;;;;;;;7.25;7.25;;;;;22.50;52.04;101217.16;5121298;27;46493;-66
2022/08/21 09:43:30;;;;;;;;;14.50;14.00;;;;;22.54;52.09;101216.81;5123081;27;45399;-66
2022/08/21 09:46:09;;;;;;;;;12.25;10.50;;;;;22.54;52.23;101214.09;5123328;27;45371;-66
2022/08/21 09:48:56;;;;;;;;;5.50;5.50;;;;;22.60;51.67;101223.63;5122622;27;45502;-66
2022/08/21 09:51:29;;;;;;;;;6.25;6.00;;;;;22.64;51.98;101227.88;5122899;27;45235;-66
2022/08/21 09:54:00;;;;;;;;;5.50;5.50;;;;;22.67;51.60;101224.94;5123030;27;45535;-65
2022/08/21 09:59:20;;;;;;;;;7.25;6.00;;;;;22.75;51.83;101213.44;5122383;27;45334;-65
2022/08/21 10:01:49;;;;;;;;;4.00;4.00;;;;;22.84;51.55;101215.47;5117917;27;46354;-65
2022/08/21 10:04:21;;;;;;;;;5.00;3.25;;;;;22.89;50.74;101205.09;5109751;27;45364;-65
2022/08/21 10:06:46;;;;;;;;;4.75;4.00;;;;;22.91;50.49;101197.69;5121632;27;45343;-66
2022/08/21 10:09:15;;;;;;;;;5.75;4.25;;;;;22.93;50.46;101186.66;5121845;27;45394;-66
2022/08/21 10:11:52;;;;;;;;;4.00;4.00;;;;;23.01;51.15;101188.81;5118640;27;45440;-67
2022/08/21 10:14:39;;;;;;;;;4.75;4.75;;;;;23.11;51.14;101182.53;5122559;27;45590;-66
2022/08/21 10:17:15;;;;;;;;;3.00;3.00;;;;;23.08;51.33;101173.75;5117604;27;45361;-66
2022/08/21 10:19:55;;;;;;;;;8.00;5.00;;;;;23.22;51.71;101179.00;5115723;27;45425;-66
2022/08/21 10:22:34;;;;;;;;;4.50;4.50;;;;;23.28;50.82;101181.22;5122771;27;45424;-66
2022/08/21 10:25:14;;;;;;;;;37.00;30.50;;;;;23.30;51.82;101167.47;5122614;27;45646;-66
2022/08/21 10:27:42;;;;;;;;;79.00;60.25;;;;;23.30;52.95;101173.81;5121449;27;45507;-66
2022/08/21 10:30:13;;;;;;;;;74.00;55.25;;;;;23.21;54.13;101166.34;5120374;27;45318;-66
2022/08/21 10:32:58;;;;;;;;;13.50;10.00;;;;;23.17;51.70;101166.72;5109285;27;46115;-69
2022/08/21 10:35:39;;;;;;;;;19.00;18.50;;;;;23.15;51.41;101155.94;5090987;27;45342;-66
2022/08/21 10:38:39;;;;;;;;;23.25;19.00;;;;;23.17;51.40;101155.81;5116543;27;45419;-66
2022/08/21 10:41:26;;;;;;;;;5.75;4.00;;;;;23.16;51.50;101154.09;5110538;27;45360;-66
2022/08/21 10:44:00;;;;;;;;;10.25;10.25;;;;;23.15;50.53;101150.50;5114469;27;45645;-66
2022/08/21 10:46:55;;;;;;;;;3.00;2.25;;;;;23.22;50.31;101148.16;5103207;27;45851;-66
2022/08/21 10:49:39;;;;;;;;;2.75;2.75;;;;;23.26;50.68;101155.97;5121226;27;45568;-66
2022/08/21 10:52:31;;;;;;;;;5.00;4.00;;;;;23.30;50.18;101141.13;5120788;27;45793;-63
2022/08/21 10:55:06;;;;;;;;;13.75;9.75;;;;;23.36;51.10;101133.44;5110786;27;45506;-64
2022/08/21 10:57:44;;;;;;;;;30.25;24.50;;;;;23.41;51.13;101134.81;5120241;27;45369;-64
2022/08/21 11:00:13;;;;;;;;;39.50;30.00;;;;;23.44;51.49;101134.56;5102179;27;45346;-64
2022/08/21 11:02:58;;;;;;;;;6.25;6.25;;;;;23.50;50.61;101135.91;5120211;27;45554;-64
2022/08/21 11:05:42;;;;;;;;;3.25;2.25;;;;;23.56;50.24;101151.78;5121928;27;46155;-63
2022/08/21 11:08:17;;;;;;;;;1.25;1.25;;;;;23.59;49.00;101139.75;5121228;27;45487;-63
2022/08/21 11:11:21;;;;;;;;;3.00;2.00;;;;;23.59;48.72;101131.56;5111839;27;45427;-63
2022/08/21 11:13:56;;;;;;;;;4.75;3.50;;;;;23.65;49.18;101126.47;5090804;27;45624;-64
2022/08/21 11:16:41;;;;;;;;;3.75;3.75;;;;;23.71;48.43;101137.91;5121472;27;45415;-64
2022/08/21 11:19:22;;;;;;;;;4.00;2.00;;;;;23.73;49.22;101136.75;5110238;27;45512;-64
2022/08/21 11:22:05;;;;;;;;;4.25;3.00;;;;;23.75;48.46;101142.09;5119681;27;45399;-64
2022/08/21 11:24:36;;;;;;;;;8.25;7.50;;;;;23.77;49.05;101157.34;5121729;27;45400;-64
2022/08/21 11:27:02;;;;;;;;;3.50;3.25;;;;;23.81;48.43;101155.22;5100448;27;47934;-65
2022/08/21 11:29:35;;;;;;;;;6.00;4.00;;;;;23.83;48.52;101159.56;5118567;27;45748;-65
2022/08/21 11:32:22;;;;;;;;;3.50;2.50;;;;;23.87;48.49;101160.19;5107607;27;45230;-65
2022/08/21 11:35:26;;;;;;;;;3.00;3.00;;;;;23.91;49.02;101161.69;5120519;27;45591;-65